createdAt,value
2017-02-20T00:01:02.921Z,0
2017-02-20T00:02:11.008Z,0
2017-02-20T00:03:19.105Z,0
2017-02-20T00:04:27.284Z,0
2017-02-20T00:05:35.974Z,0
2017-02-20T00:06:43.369Z,0
2017-02-20T00:07:51.457Z,0
2017-02-20T00:08:59.559Z,0
2017-02-20T00:10:07.793Z,0
2017-02-20T00:11:15.776Z,0
2017-02-20T00:12:23.843Z,0
2017-02-20T00:13:31.897Z,0
2017-02-20T00:14:39.980Z,0
2017-02-20T00:15:48.583Z,0
2017-02-20T00:16:56.197Z,0
2017-02-20T00:18:04.597Z,0
2017-02-20T00:19:12.336Z,0
2017-02-20T00:20:20.428Z,0
2017-02-20T00:21:28.508Z,0
2017-02-20T00:22:36.608Z,0
2017-02-20T00:23:44.730Z,0
2017-02-20T00:24:52.779Z,0
2017-02-20T00:26:00.871Z,0
2017-02-20T00:27:09.445Z,0
2017-02-20T00:28:17.050Z,0
2017-02-20T00:29:25.202Z,0
2017-02-20T00:30:33.481Z,0
2017-02-20T00:31:41.439Z,0
2017-02-20T00:32:50.309Z,0
2017-02-20T00:33:57.713Z,0
2017-02-20T00:35:05.579Z,0
2017-02-20T00:36:13.665Z,0
2017-02-20T00:37:22.019Z,0
2017-02-20T00:38:29.852Z,0
2017-02-20T00:39:38.202Z,0
2017-02-20T00:40:46.025Z,0
2017-02-20T00:41:54.561Z,0
2017-02-20T00:43:02.373Z,0
2017-02-20T00:44:10.723Z,0
2017-02-20T00:45:18.439Z,0
2017-02-20T00:46:27.099Z,0
2017-02-20T00:47:35.004Z,0
2017-02-20T00:48:43.123Z,0
2017-02-20T00:49:50.924Z,0
2017-02-20T00:50:58.904Z,0
2017-02-20T00:52:07.059Z,0
2017-02-20T00:53:15.177Z,0
2017-02-20T00:54:23.258Z,0
2017-02-20T00:55:31.581Z,0
2017-02-20T00:56:39.870Z,0
2017-02-20T00:57:47.633Z,0
2017-02-20T00:58:55.474Z,0
2017-02-20T01:00:03.671Z,0
2017-02-20T01:01:11.996Z,0
2017-02-20T01:02:19.838Z,0
2017-02-20T01:03:29.012Z,0
2017-02-20T01:04:36.396Z,0
2017-02-20T01:05:44.018Z,0
2017-02-20T01:06:52.146Z,0
2017-02-20T01:08:00.185Z,0
2017-02-20T01:09:08.443Z,0
2017-02-20T01:10:16.843Z,0
2017-02-20T01:11:24.600Z,0
2017-02-20T01:12:32.852Z,0
2017-02-20T01:13:40.667Z,0
2017-02-20T01:14:48.736Z,0
2017-02-20T01:15:56.876Z,0
2017-02-20T01:17:04.919Z,0
2017-02-20T01:18:13.002Z,0
2017-02-20T01:19:21.091Z,0
2017-02-20T01:20:29.328Z,0
2017-02-20T01:21:37.269Z,0
2017-02-20T01:22:45.683Z,0
2017-02-20T01:23:53.442Z,0
2017-02-20T01:25:02.073Z,0
2017-02-20T01:26:09.621Z,0
2017-02-20T01:27:17.822Z,0
2017-02-20T01:28:26.066Z,0
2017-02-20T01:29:33.883Z,0
2017-02-20T01:30:42.085Z,0
2017-02-20T01:31:50.637Z,0
2017-02-20T01:32:58.149Z,0
2017-02-20T01:34:06.762Z,0
2017-02-20T01:35:14.553Z,0
2017-02-20T01:36:22.410Z,0
2017-02-20T01:37:30.497Z,0
2017-02-20T01:38:38.578Z,0
2017-02-20T01:39:46.682Z,0
2017-02-20T01:40:54.760Z,0
2017-02-20T01:42:03.138Z,0
2017-02-20T01:43:11.229Z,0
2017-02-20T01:44:19.178Z,0
2017-02-20T01:45:27.323Z,0
2017-02-20T01:46:35.205Z,0
2017-02-20T01:47:43.288Z,0
2017-02-20T01:48:51.388Z,0
2017-02-20T01:49:59.548Z,0
2017-02-20T01:51:07.653Z,0
2017-02-20T01:52:15.753Z,0
2017-02-20T01:53:23.732Z,0
2017-02-20T01:54:31.817Z,0
2017-02-20T01:55:40.585Z,0
2017-02-20T01:56:48.350Z,0
2017-02-20T01:57:56.402Z,0
2017-02-20T01:59:04.494Z,0
2017-02-20T02:00:13.003Z,0
2017-02-20T02:01:20.470Z,0
2017-02-20T02:02:28.772Z,0
2017-02-20T02:03:36.534Z,0
2017-02-20T02:04:44.621Z,0
2017-02-20T02:05:52.721Z,0
2017-02-20T02:07:00.806Z,0
2017-02-20T02:08:09.315Z,0
2017-02-20T02:09:17.675Z,0
2017-02-20T02:10:25.115Z,0
2017-02-20T02:11:33.360Z,0
2017-02-20T02:12:41.527Z,0
2017-02-20T02:13:49.605Z,0
2017-02-20T02:14:58.078Z,0
2017-02-20T02:16:05.764Z,0
2017-02-20T02:17:13.594Z,0
2017-02-20T02:18:21.690Z,0
2017-02-20T02:19:29.778Z,0
2017-02-20T02:20:38.425Z,0
2017-02-20T02:21:45.962Z,0
2017-02-20T02:22:54.047Z,0
2017-02-20T02:24:02.136Z,0
2017-02-20T02:25:10.228Z,0
2017-02-20T02:26:18.324Z,0
2017-02-20T02:27:26.417Z,0
2017-02-20T02:28:34.506Z,0
2017-02-20T02:29:42.598Z,0
2017-02-20T02:30:50.680Z,0
2017-02-20T02:31:58.816Z,0
2017-02-20T02:33:06.859Z,0
2017-02-20T02:34:14.958Z,0
2017-02-20T02:35:23.038Z,0
2017-02-20T02:36:31.133Z,0
2017-02-20T02:37:39.221Z,0
2017-02-20T02:38:47.309Z,0
2017-02-20T02:39:55.398Z,0
2017-02-20T02:41:03.490Z,0
2017-02-20T02:42:11.577Z,0
2017-02-20T02:43:19.940Z,0
2017-02-20T02:44:27.753Z,0
2017-02-20T02:45:35.850Z,0
2017-02-20T02:46:43.941Z,0
2017-02-20T02:47:52.025Z,0
2017-02-20T02:49:00.188Z,0
2017-02-20T02:50:08.197Z,0
2017-02-20T02:51:16.290Z,0
2017-02-20T02:52:24.383Z,0
2017-02-20T02:53:32.467Z,0
2017-02-20T02:54:40.558Z,0
2017-02-20T02:55:48.657Z,0
2017-02-20T02:56:56.746Z,0
2017-02-20T02:58:04.833Z,0
2017-02-20T02:59:12.918Z,0
2017-02-20T03:00:21.007Z,0
2017-02-20T03:01:29.098Z,0
2017-02-20T03:02:37.178Z,0
2017-02-20T03:03:45.269Z,0
2017-02-20T03:04:53.353Z,0
2017-02-20T03:06:01.440Z,0
2017-02-20T03:07:09.530Z,0
2017-02-20T03:08:17.620Z,0
2017-02-20T03:09:25.711Z,0
2017-02-20T03:10:33.803Z,0
2017-02-20T03:11:41.890Z,0
2017-02-20T03:12:49.977Z,0
2017-02-20T03:13:58.056Z,0
2017-02-20T03:15:06.147Z,0
2017-02-20T03:16:14.236Z,0
2017-02-20T03:17:22.321Z,0
2017-02-20T03:18:30.408Z,0
2017-02-20T03:19:38.498Z,0
2017-02-20T03:20:46.586Z,0
2017-02-20T03:21:54.666Z,0
2017-02-20T03:23:02.759Z,0
2017-02-20T03:24:10.847Z,0
2017-02-20T03:25:18.933Z,0
2017-02-20T03:26:27.019Z,0
2017-02-20T03:27:35.110Z,0
2017-02-20T03:28:43.194Z,0
2017-02-20T03:29:51.285Z,0
2017-02-20T03:30:59.381Z,0
2017-02-20T03:32:07.465Z,0
2017-02-20T03:33:15.558Z,0
2017-02-20T03:34:23.638Z,0
2017-02-20T03:35:31.730Z,0
2017-02-20T03:36:39.815Z,0
2017-02-20T03:37:47.900Z,0
2017-02-20T03:38:55.994Z,0
2017-02-20T03:40:04.083Z,0
2017-02-20T03:41:12.165Z,0
2017-02-20T03:42:20.255Z,0
2017-02-20T03:43:28.350Z,0
2017-02-20T03:44:36.443Z,0
2017-02-20T03:45:44.526Z,0
2017-02-20T03:46:52.627Z,0
2017-02-20T03:48:00.717Z,0
2017-02-20T03:49:08.795Z,0
2017-02-20T03:50:16.893Z,0
2017-02-20T03:51:24.979Z,0
2017-02-20T03:52:33.062Z,0
2017-02-20T03:53:41.150Z,0
2017-02-20T03:54:49.241Z,0
2017-02-20T03:55:57.328Z,0
2017-02-20T03:57:05.418Z,0
2017-02-20T03:58:13.504Z,0
2017-02-20T03:59:21.593Z,0
2017-02-20T04:00:29.682Z,0
2017-02-20T04:01:37.765Z,0
2017-02-20T04:02:45.858Z,0
2017-02-20T04:03:53.946Z,0
2017-02-20T04:05:02.035Z,0
2017-02-20T04:06:10.122Z,0
2017-02-20T04:07:18.209Z,0
2017-02-20T04:08:26.299Z,0
2017-02-20T04:09:34.388Z,0
2017-02-20T04:10:42.477Z,0
2017-02-20T04:11:50.571Z,0
2017-02-20T04:12:58.649Z,0
2017-02-20T04:14:06.741Z,0
2017-02-20T04:15:14.828Z,0
2017-02-20T04:16:22.914Z,0
2017-02-20T04:17:31.001Z,0
2017-02-20T04:18:39.094Z,0
2017-02-20T04:19:47.184Z,0
2017-02-20T04:20:55.268Z,0
2017-02-20T04:22:03.368Z,0
2017-02-20T04:23:11.447Z,0
2017-02-20T04:24:19.533Z,0
2017-02-20T04:25:27.616Z,0
2017-02-20T04:26:35.708Z,0
2017-02-20T04:27:43.794Z,0
2017-02-20T04:28:51.881Z,0
2017-02-20T04:29:59.979Z,0
2017-02-20T04:31:08.127Z,0
2017-02-20T04:32:16.160Z,0
2017-02-20T04:33:24.234Z,0
2017-02-20T04:34:32.329Z,0
2017-02-20T04:35:40.420Z,0
2017-02-20T04:36:48.503Z,0
2017-02-20T04:37:56.623Z,0
2017-02-20T04:39:04.685Z,0
2017-02-20T04:40:12.769Z,0
2017-02-20T04:41:20.853Z,0
2017-02-20T04:42:28.943Z,0
2017-02-20T04:43:37.030Z,0
2017-02-20T04:44:45.113Z,0
2017-02-20T04:45:53.208Z,0
2017-02-20T04:47:01.298Z,0
2017-02-20T04:48:09.387Z,0
2017-02-20T04:49:17.468Z,0
2017-02-20T04:50:25.561Z,0
2017-02-20T04:51:33.646Z,0
2017-02-20T04:52:41.735Z,0
2017-02-20T04:53:49.832Z,0
2017-02-20T04:54:57.922Z,0
2017-02-20T04:56:06.006Z,0
2017-02-20T04:57:14.098Z,0
2017-02-20T04:58:22.184Z,0
2017-02-20T04:59:30.272Z,0
2017-02-20T05:00:38.364Z,0.00
2017-02-20T05:01:46.452Z,0
2017-02-20T05:02:54.541Z,0
2017-02-20T05:04:02.633Z,0
2017-02-20T05:05:10.719Z,0
2017-02-20T05:06:18.809Z,0
2017-02-20T05:07:26.902Z,0
2017-02-20T05:08:34.988Z,0
2017-02-20T05:09:43.079Z,0
2017-02-20T05:10:51.169Z,0
2017-02-20T05:11:59.260Z,0
2017-02-20T05:13:07.348Z,0
2017-02-20T05:14:15.438Z,0
2017-02-20T05:15:23.519Z,0
2017-02-20T05:16:31.606Z,0
2017-02-20T05:17:39.710Z,0
2017-02-20T05:18:47.782Z,0
2017-02-20T05:19:55.871Z,0
2017-02-20T05:21:03.967Z,0
2017-02-20T05:22:12.057Z,0
2017-02-20T05:23:20.150Z,0
2017-02-20T05:24:28.233Z,0
2017-02-20T05:25:36.326Z,0
2017-02-20T05:26:44.419Z,0
2017-02-20T05:27:52.501Z,0
2017-02-20T05:29:00.614Z,0
2017-02-20T05:30:08.683Z,0
2017-02-20T05:31:16.763Z,0
2017-02-20T05:32:24.866Z,0
2017-02-20T05:33:32.951Z,0
2017-02-20T05:34:41.060Z,0
2017-02-20T05:35:49.130Z,0
2017-02-20T05:36:57.221Z,0
2017-02-20T05:38:05.312Z,0
2017-02-20T05:39:13.400Z,0
2017-02-20T05:40:21.488Z,0
2017-02-20T05:41:29.582Z,0
2017-02-20T05:42:37.670Z,0
2017-02-20T05:43:45.753Z,0
2017-02-20T05:44:53.842Z,0
2017-02-20T05:46:01.930Z,0
2017-02-20T05:47:10.017Z,0
2017-02-20T05:48:18.110Z,0
2017-02-20T05:49:26.203Z,0
2017-02-20T05:50:34.284Z,0
2017-02-20T05:51:42.369Z,0
2017-02-20T05:52:50.459Z,0
2017-02-20T05:53:58.547Z,0
2017-02-20T05:55:06.635Z,0
2017-02-20T05:56:14.725Z,0
2017-02-20T05:57:22.816Z,0
2017-02-20T05:58:30.908Z,0
2017-02-20T05:59:38.997Z,0
2017-02-20T06:00:47.081Z,0
2017-02-20T06:01:55.171Z,0
2017-02-20T06:03:03.251Z,0
2017-02-20T06:04:11.343Z,0
2017-02-20T06:05:19.435Z,0
2017-02-20T06:06:27.515Z,0
2017-02-20T06:07:35.604Z,0
2017-02-20T06:08:43.697Z,0
2017-02-20T06:09:51.782Z,0
2017-02-20T06:10:59.883Z,0
2017-02-20T06:12:07.955Z,0
2017-02-20T06:13:16.043Z,0
2017-02-20T06:14:24.128Z,0
2017-02-20T06:15:32.214Z,0
2017-02-20T06:16:40.308Z,0
2017-02-20T06:17:48.407Z,0
2017-02-20T06:18:56.521Z,0
2017-02-20T06:20:04.583Z,0
2017-02-20T06:21:12.672Z,0
2017-02-20T06:22:20.756Z,0
2017-02-20T06:23:28.839Z,0
2017-02-20T06:24:36.931Z,0
2017-02-20T06:25:45.019Z,0
2017-02-20T06:26:53.103Z,4
2017-02-20T06:28:01.198Z,4
2017-02-20T06:29:09.293Z,0
2017-02-20T06:30:17.373Z,0
2017-02-20T06:31:25.464Z,0
2017-02-20T06:32:33.557Z,0
2017-02-20T06:33:41.646Z,4
2017-02-20T06:34:49.738Z,4
2017-02-20T06:35:57.825Z,4
2017-02-20T06:37:05.911Z,4
2017-02-20T06:38:14.133Z,0
2017-02-20T06:39:22.093Z,4
2017-02-20T06:40:30.178Z,4
2017-02-20T06:41:38.266Z,4
2017-02-20T06:42:46.426Z,4
2017-02-20T06:43:54.443Z,4
2017-02-20T06:45:02.528Z,4
2017-02-20T06:46:10.618Z,4
2017-02-20T06:47:18.714Z,4
2017-02-20T06:48:26.804Z,8
2017-02-20T06:49:34.892Z,4
2017-02-20T06:50:42.977Z,4
2017-02-20T06:51:51.071Z,8
2017-02-20T06:52:59.159Z,8
2017-02-20T06:54:07.238Z,8
2017-02-20T06:55:15.330Z,4
2017-02-20T06:56:23.414Z,8
2017-02-20T06:57:31.499Z,8
2017-02-20T06:58:39.586Z,8
2017-02-20T06:59:47.674Z,8
2017-02-20T07:00:55.768Z,8
2017-02-20T07:02:03.850Z,8
2017-02-20T07:03:11.935Z,8
2017-02-20T07:04:20.029Z,12
2017-02-20T07:05:28.110Z,12
2017-02-20T07:06:36.208Z,12
2017-02-20T07:07:44.297Z,8
2017-02-20T07:08:52.376Z,8
2017-02-20T07:10:00.841Z,8
2017-02-20T07:11:08.546Z,12
2017-02-20T07:12:16.657Z,12
2017-02-20T07:13:24.717Z,12
2017-02-20T07:14:32.804Z,8
2017-02-20T07:15:40.897Z,8
2017-02-20T07:16:48.988Z,8
2017-02-20T07:17:57.068Z,12
2017-02-20T07:19:05.166Z,12
2017-02-20T07:20:13.255Z,12
2017-02-20T07:21:21.348Z,12
2017-02-20T07:22:29.431Z,12
2017-02-20T07:23:37.524Z,12
2017-02-20T07:24:45.609Z,12
2017-02-20T07:25:53.697Z,12
2017-02-20T07:27:01.786Z,12
2017-02-20T07:28:09.881Z,12
2017-02-20T07:29:17.983Z,16
2017-02-20T07:30:26.055Z,16
2017-02-20T07:31:34.142Z,16
2017-02-20T07:32:42.230Z,12
2017-02-20T07:33:50.311Z,16
2017-02-20T07:34:58.402Z,12
2017-02-20T07:36:06.738Z,12
2017-02-20T07:37:14.583Z,16
2017-02-20T07:38:22.672Z,16
2017-02-20T07:39:30.756Z,16
2017-02-20T07:40:38.839Z,16
2017-02-20T07:41:46.923Z,16
2017-02-20T07:42:55.020Z,16
2017-02-20T07:44:03.113Z,16
2017-02-20T07:45:11.207Z,12
2017-02-20T07:46:19.290Z,16
2017-02-20T07:47:27.383Z,16
2017-02-20T07:48:35.470Z,20
2017-02-20T07:49:44.196Z,20
2017-02-20T07:50:52.012Z,16
2017-02-20T07:51:59.983Z,16
2017-02-20T07:53:08.128Z,16
2017-02-20T07:54:16.093Z,20
2017-02-20T07:55:24.222Z,20
2017-02-20T07:56:32.097Z,16
2017-02-20T07:57:40.542Z,20
2017-02-20T07:58:48.480Z,20
2017-02-20T07:59:56.783Z,16
2017-02-20T08:01:04.465Z,16
2017-02-20T08:02:12.539Z,16
2017-02-20T08:03:20.650Z,16
2017-02-20T08:04:28.720Z,16
2017-02-20T08:05:36.841Z,16
2017-02-20T08:06:44.902Z,16
2017-02-20T08:07:52.985Z,20
2017-02-20T08:09:01.069Z,16
2017-02-20T08:10:09.618Z,16
2017-02-20T08:11:17.319Z,16
2017-02-20T08:12:25.406Z,16
2017-02-20T08:13:33.890Z,16
2017-02-20T08:14:41.749Z,16
2017-02-20T08:15:49.836Z,20
2017-02-20T08:16:58.364Z,20
2017-02-20T08:18:06.205Z,16
2017-02-20T08:19:14.306Z,16
2017-02-20T08:20:21.945Z,16
2017-02-20T08:21:30.029Z,16
2017-02-20T08:22:38.121Z,16
2017-02-20T08:23:46.471Z,16
2017-02-20T08:24:54.334Z,20
2017-02-20T08:26:02.382Z,20
2017-02-20T08:27:10.472Z,16
2017-02-20T08:28:19.072Z,16
2017-02-20T08:29:26.641Z,16
2017-02-20T08:30:34.969Z,20
2017-02-20T08:31:43.056Z,20
2017-02-20T08:32:51.105Z,20
2017-02-20T08:33:59.379Z,20
2017-02-20T08:35:07.406Z,20
2017-02-20T08:36:15.365Z,24
2017-02-20T08:37:23.519Z,24
2017-02-20T08:38:31.555Z,24
2017-02-20T08:39:39.686Z,24
2017-02-20T08:40:47.651Z,24
2017-02-20T08:41:56.148Z,28
2017-02-20T08:43:04.193Z,24
2017-02-20T08:44:11.777Z,28
2017-02-20T08:45:21.559Z,28
2017-02-20T08:46:27.956Z,24
2017-02-20T08:47:36.044Z,28
2017-02-20T08:48:44.365Z,28
2017-02-20T08:49:52.933Z,28
2017-02-20T08:51:00.531Z,36
2017-02-20T08:52:08.651Z,28
2017-02-20T08:53:16.635Z,28
2017-02-20T08:54:24.784Z,24
2017-02-20T08:55:33.085Z,24
2017-02-20T08:56:40.745Z,28
2017-02-20T08:57:48.837Z,28
2017-02-20T08:58:57.387Z,28
2017-02-20T09:00:05.348Z,28
2017-02-20T09:01:13.842Z,32
2017-02-20T09:02:21.398Z,32
2017-02-20T09:03:29.467Z,36
2017-02-20T09:04:37.359Z,36
2017-02-20T09:05:45.451Z,32
2017-02-20T09:06:53.636Z,36
2017-02-20T09:08:01.626Z,36
2017-02-20T09:09:09.722Z,40
2017-02-20T09:10:17.817Z,40
2017-02-20T09:11:25.905Z,40
2017-02-20T09:12:34.007Z,44
2017-02-20T09:13:42.095Z,48
2017-02-20T09:14:50.180Z,44
2017-02-20T09:15:58.269Z,48
2017-02-20T09:17:06.356Z,48
2017-02-20T09:18:14.449Z,52
2017-02-20T09:19:22.534Z,48
2017-02-20T09:20:30.625Z,48
2017-02-20T09:21:38.705Z,40
2017-02-20T09:22:46.797Z,48
2017-02-20T09:23:54.891Z,44
2017-02-20T09:25:02.975Z,52
2017-02-20T09:26:11.067Z,44
2017-02-20T09:27:19.149Z,44
2017-02-20T09:28:27.234Z,44
2017-02-20T09:29:35.321Z,44
2017-02-20T09:30:43.409Z,44
2017-02-20T09:31:51.496Z,44
2017-02-20T09:32:59.590Z,40
2017-02-20T09:34:07.682Z,40
2017-02-20T09:35:15.780Z,44
2017-02-20T09:36:23.853Z,44
2017-02-20T09:37:31.948Z,40
2017-02-20T09:38:40.038Z,44
2017-02-20T09:39:48.127Z,40
2017-02-20T09:40:56.218Z,40
2017-02-20T09:42:04.309Z,40
2017-02-20T09:43:12.392Z,44
2017-02-20T09:44:20.640Z,44
2017-02-20T09:45:28.577Z,40
2017-02-20T09:46:36.662Z,40
2017-02-20T09:47:44.752Z,40
2017-02-20T09:48:52.839Z,44
2017-02-20T09:50:01.116Z,44
2017-02-20T09:51:09.048Z,44
2017-02-20T09:52:17.103Z,44
2017-02-20T09:53:25.196Z,44
2017-02-20T09:54:33.280Z,44
2017-02-20T09:55:42.486Z,40
2017-02-20T09:56:49.461Z,40
2017-02-20T09:57:57.559Z,44
2017-02-20T09:59:05.648Z,44
2017-02-20T10:00:13.735Z,44
2017-02-20T10:01:21.832Z,48
2017-02-20T10:02:29.919Z,40
2017-02-20T10:03:38.007Z,40
2017-02-20T10:04:46.102Z,48
2017-02-20T10:05:54.195Z,44
2017-02-20T10:07:02.278Z,44
2017-02-20T10:08:10.368Z,52
2017-02-20T10:09:18.457Z,52
2017-02-20T10:10:26.549Z,48
2017-02-20T10:11:34.634Z,52
2017-02-20T10:12:42.726Z,48
2017-02-20T10:13:50.814Z,48
2017-02-20T10:14:58.898Z,48
2017-02-20T10:16:06.984Z,52
2017-02-20T10:17:15.077Z,64
2017-02-20T10:18:23.158Z,52
2017-02-20T10:19:31.255Z,52
2017-02-20T10:20:39.379Z,52
2017-02-20T10:21:47.427Z,52
2017-02-20T10:22:55.520Z,48
2017-02-20T10:24:03.604Z,44
2017-02-20T10:25:11.838Z,48
2017-02-20T10:26:19.790Z,44
2017-02-20T10:27:27.879Z,44
2017-02-20T10:28:35.964Z,44
2017-02-20T10:29:44.055Z,48
2017-02-20T10:30:52.132Z,44
2017-02-20T10:32:00.308Z,44
2017-02-20T10:33:08.319Z,44
2017-02-20T10:34:16.396Z,48
2017-02-20T10:35:24.481Z,48
2017-02-20T10:36:32.576Z,52
2017-02-20T10:37:40.675Z,52
2017-02-20T10:38:48.764Z,56
2017-02-20T10:39:56.860Z,56
2017-02-20T10:41:04.953Z,60
2017-02-20T10:42:13.038Z,60
2017-02-20T10:43:21.129Z,60
2017-02-20T10:44:29.215Z,60
2017-02-20T10:45:37.310Z,60
2017-02-20T10:46:45.395Z,56
2017-02-20T10:47:53.484Z,56
2017-02-20T10:49:01.588Z,52
2017-02-20T10:50:09.669Z,52
2017-02-20T10:51:17.766Z,52
2017-02-20T10:52:25.845Z,52
2017-02-20T10:53:33.927Z,52
2017-02-20T10:54:42.026Z,56
2017-02-20T10:55:50.115Z,48
2017-02-20T10:56:58.205Z,48
2017-02-20T10:58:06.292Z,48
2017-02-20T10:59:14.375Z,48
2017-02-20T11:00:22.467Z,48
2017-02-20T11:01:30.554Z,48
2017-02-20T11:02:38.637Z,52
2017-02-20T11:03:46.729Z,52
2017-02-20T11:04:54.822Z,52
2017-02-20T11:06:02.911Z,52
2017-02-20T11:07:10.997Z,56
2017-02-20T11:08:19.090Z,60
2017-02-20T11:09:27.177Z,52
2017-02-20T11:10:35.266Z,56
2017-02-20T11:11:43.352Z,52
2017-02-20T11:12:51.442Z,52
2017-02-20T11:13:59.531Z,52
2017-02-20T11:15:07.611Z,44
2017-02-20T11:16:15.705Z,48
2017-02-20T11:17:23.789Z,32
2017-02-20T11:18:31.875Z,40
2017-02-20T11:19:39.967Z,36
2017-02-20T11:20:48.054Z,40
2017-02-20T11:21:56.143Z,44
2017-02-20T11:23:04.232Z,48
2017-02-20T11:24:12.328Z,48
2017-02-20T11:25:20.412Z,48
2017-02-20T11:26:28.496Z,48
2017-02-20T11:27:36.589Z,44
2017-02-20T11:28:44.681Z,52
2017-02-20T11:29:52.764Z,48
2017-02-20T11:31:00.860Z,48
2017-02-20T11:32:08.951Z,48
2017-02-20T11:33:17.041Z,52
2017-02-20T11:34:25.127Z,48
2017-02-20T11:35:33.284Z,52
2017-02-20T11:36:41.310Z,44
2017-02-20T11:37:49.399Z,44
2017-02-20T11:38:57.487Z,44
2017-02-20T11:40:05.578Z,44
2017-02-20T11:41:13.670Z,48
2017-02-20T11:42:21.759Z,48
2017-02-20T11:43:29.856Z,44
2017-02-20T11:44:37.939Z,48
2017-02-20T11:45:46.022Z,56
2017-02-20T11:46:54.120Z,60
2017-02-20T11:48:02.209Z,64
2017-02-20T11:49:10.294Z,68
2017-02-20T11:50:18.380Z,64
2017-02-20T11:51:26.471Z,68
2017-02-20T11:52:34.555Z,72
2017-02-20T11:53:42.639Z,68
2017-02-20T11:54:50.733Z,80
2017-02-20T11:55:58.819Z,72
2017-02-20T11:57:06.911Z,68
2017-02-20T11:58:15.002Z,64
2017-02-20T11:59:23.097Z,60
2017-02-20T12:00:31.192Z,56
2017-02-20T12:01:39.284Z,56
2017-02-20T12:02:47.376Z,52
2017-02-20T12:03:55.464Z,52
2017-02-20T12:05:03.550Z,48
2017-02-20T12:06:11.637Z,52
2017-02-20T12:07:19.742Z,48
2017-02-20T12:08:27.830Z,48
2017-02-20T12:09:35.918Z,40
2017-02-20T12:10:44.020Z,36
2017-02-20T12:11:52.112Z,32
2017-02-20T12:13:00.194Z,28
2017-02-20T12:14:08.277Z,24
2017-02-20T12:15:16.369Z,24
2017-02-20T12:16:24.466Z,20
2017-02-20T12:17:32.551Z,28
2017-02-20T12:18:40.641Z,24
2017-02-20T12:19:48.729Z,24
2017-02-20T12:20:56.814Z,24
2017-02-20T12:22:04.902Z,20
2017-02-20T12:23:12.992Z,20
2017-02-20T12:24:21.081Z,24
2017-02-20T12:25:29.173Z,20
2017-02-20T12:26:37.261Z,24
2017-02-20T12:27:45.358Z,24
2017-02-20T12:28:53.439Z,24
2017-02-20T12:30:01.525Z,28
2017-02-20T12:31:09.619Z,28
2017-02-20T12:32:17.711Z,36
2017-02-20T12:33:25.797Z,32
2017-02-20T12:34:33.885Z,32
2017-02-20T12:35:41.979Z,32
2017-02-20T12:36:50.065Z,36
2017-02-20T12:37:58.157Z,36
2017-02-20T12:39:06.252Z,32
2017-02-20T12:40:14.344Z,28
2017-02-20T12:41:22.429Z,32
2017-02-20T12:42:30.518Z,32
2017-02-20T12:43:38.616Z,28
2017-02-20T12:44:46.696Z,28
2017-02-20T12:45:54.784Z,28
2017-02-20T12:47:02.879Z,32
2017-02-20T12:48:10.965Z,32
2017-02-20T12:49:19.063Z,32
2017-02-20T12:50:27.145Z,32
2017-02-20T12:51:35.238Z,32
2017-02-20T12:52:43.323Z,32
2017-02-20T12:53:51.416Z,24
2017-02-20T12:54:59.501Z,28
2017-02-20T12:56:07.588Z,32
2017-02-20T12:57:15.679Z,32
2017-02-20T12:58:23.772Z,32
2017-02-20T12:59:31.865Z,32
2017-02-20T13:00:39.956Z,28
2017-02-20T13:01:48.041Z,36
2017-02-20T13:02:56.134Z,32
2017-02-20T13:04:04.228Z,40
2017-02-20T13:05:12.309Z,36
2017-02-20T13:06:20.403Z,36
2017-02-20T13:07:28.496Z,36
2017-02-20T13:08:36.580Z,36
2017-02-20T13:09:44.681Z,40
2017-02-20T13:10:52.761Z,40
2017-02-20T13:12:00.852Z,32
2017-02-20T13:13:09.012Z,28
2017-02-20T13:14:17.037Z,28
2017-02-20T13:15:25.125Z,28
2017-02-20T13:16:33.207Z,24
2017-02-20T13:17:41.297Z,28
2017-02-20T13:18:49.385Z,20
2017-02-20T13:19:57.472Z,20
2017-02-20T13:21:05.561Z,24
2017-02-20T13:22:13.651Z,24
2017-02-20T13:23:21.738Z,20
2017-02-20T13:24:29.828Z,16
2017-02-20T13:25:37.914Z,24
2017-02-20T13:26:46.007Z,24
2017-02-20T13:27:54.105Z,28
2017-02-20T13:29:02.189Z,28
2017-02-20T13:30:10.307Z,32
2017-02-20T13:31:18.370Z,32
2017-02-20T13:32:26.459Z,36
2017-02-20T13:33:34.548Z,32
2017-02-20T13:34:42.634Z,28
2017-02-20T13:35:50.725Z,28
2017-02-20T13:36:58.819Z,36
2017-02-20T13:38:06.906Z,40
2017-02-20T13:39:15.006Z,40
2017-02-20T13:40:23.083Z,40
2017-02-20T13:41:31.185Z,40
2017-02-20T13:42:39.281Z,40
2017-02-20T13:43:47.369Z,36
2017-02-20T13:44:55.455Z,44
2017-02-20T13:46:03.551Z,44
2017-02-20T13:47:11.666Z,40
2017-02-20T13:48:19.724Z,36
2017-02-20T13:49:27.820Z,36
2017-02-20T13:50:35.910Z,40
2017-02-20T13:51:44.003Z,40
2017-02-20T13:52:52.086Z,32
2017-02-20T13:54:00.176Z,36
2017-02-20T13:55:08.273Z,40
2017-02-20T13:56:16.366Z,44
2017-02-20T13:57:24.462Z,40
2017-02-20T13:58:32.551Z,36
2017-02-20T13:59:40.643Z,36
2017-02-20T14:00:48.726Z,32
2017-02-20T14:01:56.822Z,32
2017-02-20T14:03:04.907Z,32
2017-02-20T14:04:12.997Z,32
2017-02-20T14:05:21.083Z,28
2017-02-20T14:06:29.181Z,32
2017-02-20T14:07:37.270Z,28
2017-02-20T14:08:45.361Z,32
2017-02-20T14:09:53.449Z,32
2017-02-20T14:11:01.536Z,28
2017-02-20T14:12:09.621Z,32
2017-02-20T14:13:17.712Z,32
2017-02-20T14:14:25.807Z,32
2017-02-20T14:15:33.895Z,28
2017-02-20T14:16:41.994Z,32
2017-02-20T14:17:50.081Z,28
2017-02-20T14:18:58.168Z,28
2017-02-20T14:20:06.294Z,24
2017-02-20T14:21:14.348Z,28
2017-02-20T14:22:22.436Z,28
2017-02-20T14:23:30.527Z,24
2017-02-20T14:24:38.614Z,28
2017-02-20T14:25:46.712Z,24
2017-02-20T14:26:54.813Z,24
2017-02-20T14:28:02.888Z,24
2017-02-20T14:29:10.989Z,28
2017-02-20T14:30:19.088Z,24
2017-02-20T14:31:27.167Z,24
2017-02-20T14:32:35.256Z,24
2017-02-20T14:33:43.347Z,20
2017-02-20T14:34:51.443Z,20
2017-02-20T14:35:59.532Z,20
2017-02-20T14:37:07.618Z,20
2017-02-20T14:38:15.712Z,24
2017-02-20T14:39:23.794Z,20
2017-02-20T14:40:31.889Z,20
2017-02-20T14:41:39.981Z,20
2017-02-20T14:42:48.065Z,20
2017-02-20T14:43:56.153Z,20
2017-02-20T14:45:04.245Z,16
2017-02-20T14:46:12.336Z,16
2017-02-20T14:47:20.424Z,16
2017-02-20T14:48:28.518Z,20
2017-02-20T14:49:36.608Z,20
2017-02-20T14:50:44.693Z,20
2017-02-20T14:51:52.784Z,20
2017-02-20T14:53:00.876Z,20
2017-02-20T14:54:08.988Z,24
2017-02-20T14:55:17.049Z,24
2017-02-20T14:56:25.147Z,24
2017-02-20T14:57:33.238Z,20
2017-02-20T14:58:41.322Z,24
2017-02-20T14:59:49.409Z,24
2017-02-20T15:00:57.504Z,24
2017-02-20T15:02:05.586Z,24
2017-02-20T15:03:13.678Z,20
2017-02-20T15:04:21.768Z,20
2017-02-20T15:05:29.864Z,20
2017-02-20T15:06:37.957Z,20
2017-02-20T15:07:46.050Z,20
2017-02-20T15:08:54.140Z,20
2017-02-20T15:10:02.233Z,20
2017-02-20T15:11:10.321Z,24
2017-02-20T15:12:18.418Z,20
2017-02-20T15:13:26.509Z,24
2017-02-20T15:14:34.595Z,20
2017-02-20T15:15:42.681Z,20
2017-02-20T15:16:50.771Z,20
2017-02-20T15:17:58.857Z,20
2017-02-20T15:19:06.947Z,20
2017-02-20T15:20:15.037Z,24
2017-02-20T15:21:23.127Z,20
2017-02-20T15:22:31.216Z,24
2017-02-20T15:23:39.308Z,20
2017-02-20T15:24:47.399Z,20
2017-02-20T15:25:55.489Z,20
2017-02-20T15:27:03.571Z,16
2017-02-20T15:28:11.660Z,20
2017-02-20T15:29:19.748Z,16
2017-02-20T15:30:27.839Z,16
2017-02-20T15:31:35.929Z,16
2017-02-20T15:32:44.046Z,20
2017-02-20T15:33:52.115Z,16
2017-02-20T15:35:00.201Z,16
2017-02-20T15:36:08.297Z,16
2017-02-20T15:37:16.385Z,12
2017-02-20T15:38:24.473Z,16
2017-02-20T15:39:32.569Z,16
2017-02-20T15:40:40.649Z,12
2017-02-20T15:41:48.813Z,16
2017-02-20T15:42:56.823Z,12
2017-02-20T15:44:04.916Z,16
2017-02-20T15:45:13.005Z,12
2017-02-20T15:46:21.089Z,12
2017-02-20T15:47:29.186Z,12
2017-02-20T15:48:37.281Z,12
2017-02-20T15:49:45.377Z,12
2017-02-20T15:50:53.455Z,12
2017-02-20T15:52:01.547Z,12
2017-02-20T15:53:09.640Z,12
2017-02-20T15:54:17.725Z,12
2017-02-20T15:55:25.843Z,12
2017-02-20T15:56:33.910Z,8
2017-02-20T15:57:41.996Z,12
2017-02-20T15:58:50.165Z,8
2017-02-20T15:59:58.178Z,8
2017-02-20T16:01:06.262Z,12
2017-02-20T16:02:14.358Z,8
2017-02-20T16:03:22.438Z,8
2017-02-20T16:04:30.533Z,8
2017-02-20T16:05:39.022Z,4
2017-02-20T16:06:46.706Z,8
2017-02-20T16:07:54.797Z,4
2017-02-20T16:09:02.888Z,8
2017-02-20T16:10:10.972Z,4
2017-02-20T16:11:19.067Z,4
2017-02-20T16:12:27.149Z,4
2017-02-20T16:13:35.239Z,4
2017-02-20T16:14:43.320Z,4
2017-02-20T16:15:51.409Z,4
2017-02-20T16:16:59.500Z,4
2017-02-20T16:18:07.588Z,4
2017-02-20T16:19:15.678Z,4
2017-02-20T16:20:23.765Z,4
2017-02-20T16:21:31.853Z,0
2017-02-20T16:22:39.946Z,0
2017-02-20T16:23:48.035Z,0
2017-02-20T16:24:56.122Z,4
2017-02-20T16:26:04.208Z,4
2017-02-20T16:27:12.297Z,4